createdAt,value
2023-01-04T00:01:19.549Z,5.20
2023-01-04T00:03:46.276Z,6.13
2023-01-04T00:06:15.749Z,8.65
2023-01-04T00:08:42.322Z,6.20
2023-01-04T00:11:20.691Z,9.77
2023-01-04T00:13:50.446Z,7.97
2023-01-04T00:16:19.682Z,6.65
2023-01-04T00:18:47.167Z,5.10
2023-01-04T00:21:19.162Z,8.20
2023-01-04T00:23:49.021Z,6.07
2023-01-04T00:26:19.064Z,5.47
2023-01-04T00:28:51.786Z,4.40
2023-01-04T00:31:21.421Z,6.03
2023-01-04T00:33:48.071Z,6.72
2023-01-04T00:36:15.282Z,6.45
2023-01-04T00:38:42.682Z,5.80
2023-01-04T00:41:23.081Z,7.68
2023-01-04T00:43:54.921Z,6.25
2023-01-04T00:46:21.523Z,8.63
2023-01-04T00:48:49.105Z,6.60
2023-01-04T00:51:15.807Z,8.35
2023-01-04T00:53:42.342Z,7.68
2023-01-04T00:56:08.841Z,5.60
2023-01-04T00:58:35.334Z,7.20
2023-01-04T01:01:08.648Z,5.88
2023-01-04T01:03:38.829Z,6.38
2023-01-04T01:06:07.272Z,8.82
2023-01-04T01:08:34.602Z,5.55
2023-01-04T01:11:09.801Z,4.53
2023-01-04T01:13:37.858Z,5.43
2023-01-04T01:16:06.388Z,5.88
2023-01-04T01:18:34.789Z,5.13
2023-01-04T01:21:05.604Z,6.45
2023-01-04T01:23:32.201Z,5.45
2023-01-04T01:26:03.089Z,6.13
2023-01-04T01:28:30.204Z,6.82
2023-01-04T01:31:02.452Z,4.93
2023-01-04T01:33:33.837Z,4.65
2023-01-04T01:36:02.047Z,4.70
2023-01-04T01:38:28.655Z,5.78
2023-01-04T01:40:55.210Z,6.57
2023-01-04T01:43:43.122Z,5.68
2023-01-04T01:46:10.844Z,6.32
2023-01-04T01:48:38.522Z,3.40
2023-01-04T01:51:05.880Z,3.72
2023-01-04T01:53:36.771Z,3.42
2023-01-04T01:56:06.075Z,5.53
2023-01-04T01:58:36.915Z,2.67
2023-01-04T02:01:03.467Z,2.80
2023-01-04T02:03:37.634Z,2.30
2023-01-04T02:06:08.455Z,3.08
2023-01-04T02:08:38.120Z,4.00
2023-01-04T02:11:06.078Z,2.40
2023-01-04T02:13:53.306Z,3.47
2023-01-04T02:16:47.393Z,3.17
2023-01-04T02:19:35.689Z,4.82
2023-01-04T02:22:20.903Z,2.45
2023-01-04T02:25:11.340Z,2.97
2023-01-04T02:27:59.565Z,3.55
2023-01-04T02:30:44.126Z,5.68
2023-01-04T02:33:53.967Z,5.63
2023-01-04T02:36:40.782Z,3.03
2023-01-04T02:39:35.219Z,3.50
2023-01-04T02:43:02.491Z,2.67
2023-01-04T02:45:39.055Z,2.17
2023-01-04T02:48:25.656Z,3.13
2023-01-04T02:50:58.034Z,2.58
2023-01-04T02:53:33.173Z,1.98
2023-01-04T02:56:10.261Z,4.55
2023-01-04T02:59:02.216Z,4.97
2023-01-04T03:02:01.116Z,2.35
2023-01-04T03:04:55.066Z,3.38
2023-01-04T03:07:46.502Z,3.28
2023-01-04T03:10:17.818Z,3.33
2023-01-04T03:12:52.448Z,2.70
2023-01-04T03:15:40.873Z,2.00
2023-01-04T03:18:13.704Z,3.58
2023-01-04T03:20:42.515Z,1.60
2023-01-04T03:23:31.108Z,5.55
2023-01-04T03:26:28.843Z,3.15
2023-01-04T03:29:18.848Z,3.72
2023-01-04T03:32:25.723Z,2.00
2023-01-04T03:35:13.015Z,2.08
2023-01-04T03:38:22.447Z,1.40
2023-01-04T03:41:22.558Z,2.53
2023-01-04T03:44:23.928Z,2.53
2023-01-04T03:47:14.968Z,2.17
2023-01-04T03:49:50.039Z,1.65
2023-01-04T03:52:18.257Z,2.13
2023-01-04T03:54:48.422Z,1.60
2023-01-04T03:57:16.335Z,1.92
2023-01-04T03:59:50.352Z,1.95
2023-01-04T04:02:24.639Z,2.75
2023-01-04T04:05:10.105Z,1.70
2023-01-04T04:07:55.004Z,2.38
2023-01-04T04:10:21.516Z,2.63
2023-01-04T04:12:48.935Z,2.03
2023-01-04T04:15:16.267Z,1.90
2023-01-04T04:17:42.828Z,1.73
2023-01-04T04:20:10.272Z,2.45
2023-01-04T04:22:36.894Z,3.22
2023-01-04T04:25:03.776Z,2.63
2023-01-04T04:27:30.368Z,3.20
2023-01-04T04:29:56.906Z,2.08
2023-01-04T04:32:23.450Z,2.80
2023-01-04T04:34:49.989Z,2.10
2023-01-04T04:37:16.794Z,3.67
2023-01-04T04:39:43.345Z,2.10
2023-01-04T04:42:09.894Z,1.92
2023-01-04T04:44:36.570Z,2.17
2023-01-04T04:47:03.225Z,1.65
2023-01-04T04:49:30.293Z,3.20
2023-01-04T04:51:56.839Z,2.97
2023-01-04T04:54:23.455Z,3.42
2023-01-04T04:56:50.391Z,3.55
2023-01-04T04:59:17.460Z,2.67
2023-01-04T05:01:44.099Z,2.45
2023-01-04T05:04:16.498Z,2.50
2023-01-04T05:06:44.294Z,2.97
2023-01-04T05:09:12.411Z,2.70
2023-01-04T05:11:57.463Z,3.50
2023-01-04T05:14:24.342Z,2.85
2023-01-04T05:16:51.127Z,2.80
2023-01-04T05:19:18.147Z,3.20
2023-01-04T05:21:44.868Z,3.03
2023-01-04T05:24:12.598Z,4.38
2023-01-04T05:26:40.069Z,3.15
2023-01-04T05:29:06.647Z,5.40
2023-01-04T05:31:33.162Z,3.90
2023-01-04T05:33:59.706Z,3.80
2023-01-04T05:36:26.711Z,3.88
2023-01-04T05:38:53.222Z,4.72
2023-01-04T05:41:38.022Z,4.03
2023-01-04T05:44:04.640Z,3.97
2023-01-04T05:46:31.243Z,4.32
2023-01-04T05:48:58.439Z,4.00
2023-01-04T05:51:24.977Z,4.65
2023-01-04T05:53:51.527Z,7.43
2023-01-04T05:56:18.123Z,6.13
2023-01-04T05:58:44.830Z,4.63
2023-01-04T06:01:15.478Z,6.15
2023-01-04T06:03:42.242Z,4.85
2023-01-04T06:06:08.836Z,4.55
2023-01-04T06:08:35.419Z,6.25
2023-01-04T06:11:01.940Z,5.18
2023-01-04T06:13:28.442Z,5.65
2023-01-04T06:15:54.958Z,5.68
2023-01-04T06:18:21.492Z,4.93
2023-01-04T06:20:52.058Z,4.00
2023-01-04T06:23:18.622Z,4.40
2023-01-04T06:25:45.121Z,4.88
2023-01-04T06:28:11.663Z,5.32
2023-01-04T06:30:38.268Z,4.15
2023-01-04T06:33:04.872Z,4.43
2023-01-04T06:35:31.429Z,3.40
2023-01-04T06:37:58.012Z,4.97
2023-01-04T06:40:24.617Z,4.85
2023-01-04T06:42:51.211Z,3.40
2023-01-04T06:45:17.742Z,4.10
2023-01-04T06:47:44.770Z,3.78
2023-01-04T06:50:11.754Z,3.88
2023-01-04T06:52:38.334Z,3.55
2023-01-04T06:55:06.640Z,3.88
2023-01-04T06:57:33.180Z,3.75
2023-01-04T06:59:59.758Z,3.42
2023-01-04T07:02:26.982Z,4.05
2023-01-04T07:04:53.700Z,4.18
2023-01-04T07:07:20.413Z,3.05
2023-01-04T07:09:47.009Z,4.97
2023-01-04T07:12:13.523Z,3.03
2023-01-04T07:14:40.079Z,3.22
2023-01-04T07:17:06.621Z,3.70
2023-01-04T07:19:33.161Z,3.05
2023-01-04T07:22:01.679Z,3.03
2023-01-04T07:24:30.656Z,2.45
2023-01-04T07:26:59.949Z,3.25
2023-01-04T07:29:26.582Z,2.22
2023-01-04T07:31:53.792Z,3.92
2023-01-04T07:34:22.937Z,3.35
2023-01-04T07:36:50.090Z,3.05
2023-01-04T07:39:18.189Z,3.15
2023-01-04T07:41:47.116Z,4.95
2023-01-04T07:44:21.766Z,4.40
2023-01-04T07:46:48.420Z,3.42
2023-01-04T07:49:18.538Z,4.05
2023-01-04T07:51:47.260Z,2.90
2023-01-04T07:54:14.759Z,1.65
2023-01-04T07:56:41.398Z,4.90
2023-01-04T07:59:09.181Z,3.13
2023-01-04T08:01:37.903Z,3.58
2023-01-04T08:04:06.230Z,2.08
2023-01-04T08:06:33.545Z,3.08
2023-01-04T08:09:00.839Z,2.10
2023-01-04T08:11:27.760Z,2.33
2023-01-04T08:13:54.298Z,4.78
2023-01-04T08:16:22.683Z,6.90
2023-01-04T08:18:56.909Z,3.33
2023-01-04T08:21:24.737Z,3.35
2023-01-04T08:23:52.364Z,4.55
2023-01-04T08:26:21.516Z,2.15
2023-01-04T08:28:49.583Z,3.38
2023-01-04T08:31:19.358Z,1.42
2023-01-04T08:33:46.921Z,2.53
2023-01-04T08:36:27.460Z,3.10
2023-01-04T08:39:01.748Z,4.43
2023-01-04T08:44:22.436Z,3.90
2023-01-04T08:46:50.722Z,3.05
2023-01-04T08:49:18.122Z,3.10
2023-01-04T08:51:45.409Z,3.00
2023-01-04T08:54:12.535Z,1.95
2023-01-04T08:56:39.091Z,5.20
2023-01-04T08:59:06.831Z,3.63
2023-01-04T09:01:35.060Z,4.63
2023-01-04T09:04:01.976Z,4.50
2023-01-04T09:06:28.631Z,2.47
2023-01-04T09:08:56.160Z,4.78
2023-01-04T09:11:22.824Z,3.15
2023-01-04T09:13:49.920Z,4.70
2023-01-04T09:16:19.242Z,5.47
2023-01-04T09:18:47.037Z,3.00
2023-01-04T09:21:16.592Z,2.38
2023-01-04T09:23:44.040Z,3.50
2023-01-04T09:26:13.767Z,3.50
2023-01-04T09:28:40.430Z,4.55
2023-01-04T09:31:15.989Z,4.75
2023-01-04T09:36:31.059Z,3.17
2023-01-04T09:38:57.834Z,5.30
2023-01-04T09:41:27.452Z,4.00
2023-01-04T09:43:56.896Z,4.07
2023-01-04T09:46:44.257Z,4.05
2023-01-04T09:49:10.771Z,4.22
2023-01-04T09:51:41.221Z,6.18
2023-01-04T09:54:17.072Z,2.20
2023-01-04T09:56:51.538Z,5.15
2023-01-04T09:59:25.333Z,2.00
2023-01-04T10:02:13.597Z,3.58
2023-01-04T10:04:49.426Z,2.80
2023-01-04T10:07:29.013Z,3.72
2023-01-04T10:09:56.725Z,4.68
2023-01-04T10:12:35.286Z,2.72
2023-01-04T10:15:23.072Z,3.58
2023-01-04T10:19:51.028Z,4.05
2023-01-04T10:21:42.570Z,2.60
2023-01-04T10:24:33.003Z,2.60
2023-01-04T10:27:09.088Z,5.22
2023-01-04T10:29:59.217Z,2.97
2023-01-04T10:32:39.209Z,5.00
2023-01-04T10:35:26.053Z,4.15
2023-01-04T10:38:04.374Z,7.20
2023-01-04T10:40:37.937Z,4.22
2023-01-04T10:43:25.853Z,4.32
2023-01-04T10:46:00.947Z,4.43
2023-01-04T10:48:41.043Z,3.15
2023-01-04T10:51:10.594Z,3.17
2023-01-04T10:54:02.295Z,3.67
2023-01-04T10:56:47.405Z,2.47
2023-01-04T10:59:29.275Z,3.28
2023-01-04T11:02:15.610Z,1.58
2023-01-04T11:05:12.956Z,4.28
2023-01-04T11:07:43.554Z,3.50
2023-01-04T11:10:26.017Z,2.25
2023-01-04T11:12:53.071Z,2.50
2023-01-04T11:15:20.008Z,3.67
2023-01-04T11:17:48.070Z,5.25
2023-01-04T11:20:14.723Z,5.38
2023-01-04T11:22:47.763Z,7.20
2023-01-04T11:25:36.474Z,3.33
2023-01-04T11:28:16.287Z,4.63
2023-01-04T11:30:55.539Z,2.00
2023-01-04T11:33:24.042Z,3.05
2023-01-04T11:35:51.861Z,3.83
2023-01-04T11:38:20.939Z,2.38
2023-01-04T11:41:07.506Z,1.85
2023-01-04T11:43:39.403Z,2.67
2023-01-04T11:46:17.853Z,1.70
2023-01-04T11:48:46.192Z,1.95
2023-01-04T11:51:25.387Z,1.60
2023-01-04T11:54:27.383Z,1.25
2023-01-04T11:57:01.587Z,1.35
2023-01-04T11:59:30.304Z,2.05
2023-01-04T12:02:59.625Z,1.60
2023-01-04T12:05:28.979Z,1.42
2023-01-04T12:07:58.392Z,1.50
2023-01-04T12:10:27.681Z,1.65
2023-01-04T12:12:56.329Z,1.38
2023-01-04T12:15:39.264Z,1.58
2023-01-04T12:18:13.172Z,2.65
2023-01-04T12:20:39.681Z,1.55
2023-01-04T12:23:06.658Z,1.45
2023-01-04T12:25:40.386Z,2.33
2023-01-04T12:28:07.051Z,2.67
2023-01-04T12:30:46.200Z,3.28
2023-01-04T12:33:30.801Z,2.78
2023-01-04T12:36:10.990Z,1.08
2023-01-04T12:38:52.982Z,1.70
2023-01-04T12:41:24.257Z,0.80
2023-01-04T12:43:51.080Z,1.55
2023-01-04T12:46:48.342Z,1.17
2023-01-04T12:49:34.134Z,3.03
2023-01-04T12:54:58.952Z,0.90
2023-01-04T12:57:36.835Z,0.90
2023-01-04T13:00:12.580Z,1.70
2023-01-04T13:02:48.217Z,1.98
2023-01-04T13:08:10.997Z,1.27
2023-01-04T13:10:44.877Z,1.10
2023-01-04T13:13:28.510Z,0.57
2023-01-04T13:16:18.150Z,0.68
2023-01-04T13:18:59.222Z,1.58
2023-01-04T13:21:31.421Z,1.10
2023-01-04T13:24:17.151Z,0.70
2023-01-04T13:26:51.277Z,1.33
2023-01-04T13:29:25.616Z,0.77
2023-01-04T13:31:56.522Z,0.80
2023-01-04T13:34:23.198Z,0.90
2023-01-04T13:36:54.650Z,1.40
2023-01-04T13:39:21.878Z,0.70
2023-01-04T13:41:48.823Z,1.40
2023-01-04T13:47:30.181Z,1.00
2023-01-04T13:49:56.788Z,0.98
2023-01-04T13:55:17.566Z,1.80
2023-01-04T13:58:17.555Z,1.23
2023-01-04T14:00:51.403Z,1.70
2023-01-04T14:03:31.553Z,2.08
2023-01-04T14:06:10.478Z,2.28
2023-01-04T14:08:46.655Z,2.20
2023-01-04T14:12:03.783Z,2.65
2023-01-04T14:15:22.573Z,2.97
2023-01-04T14:17:54.738Z,4.20
2023-01-04T14:20:22.804Z,3.70
2023-01-04T14:22:49.299Z,81.82
2023-01-04T14:25:33.923Z,68.75
2023-01-04T14:28:19.060Z,18.08
2023-01-04T14:30:48.046Z,5.07
2023-01-04T14:33:18.843Z,3.78
2023-01-04T14:35:48.948Z,3.83
2023-01-04T14:38:18.987Z,6.40
2023-01-04T14:40:46.157Z,3.20
2023-01-04T14:43:31.293Z,6.05
2023-01-04T14:45:57.896Z,5.18
2023-01-04T14:48:24.439Z,4.55
2023-01-04T14:50:51.281Z,4.75
2023-01-04T14:53:19.137Z,4.47
2023-01-04T14:55:45.619Z,5.22
2023-01-04T14:58:12.151Z,4.15
2023-01-04T15:00:38.639Z,5.47
2023-01-04T15:03:05.366Z,5.13
2023-01-04T15:05:37.465Z,4.75
2023-01-04T15:08:04.715Z,5.35
2023-01-04T15:10:31.315Z,6.53
2023-01-04T15:13:00.563Z,5.00
2023-01-04T15:15:27.459Z,5.95
2023-01-04T15:17:53.945Z,5.45
2023-01-04T15:20:20.517Z,9.30
2023-01-04T15:22:47.171Z,6.30
2023-01-04T15:25:13.890Z,5.75
2023-01-04T15:27:42.801Z,7.43
2023-01-04T15:30:11.483Z,6.35
2023-01-04T15:32:38.099Z,8.40
2023-01-04T15:35:06.939Z,6.97
2023-01-04T15:37:33.480Z,11.32
2023-01-04T15:40:02.900Z,6.85
2023-01-04T15:42:48.690Z,10.20
2023-01-04T15:45:15.575Z,8.13
2023-01-04T15:47:42.571Z,9.85
2023-01-04T15:50:09.845Z,12.00
2023-01-04T15:52:36.466Z,7.28
2023-01-04T15:55:03.424Z,10.60
2023-01-04T15:57:30.132Z,15.55
2023-01-04T15:59:56.749Z,10.80
2023-01-04T16:02:26.395Z,13.25
2023-01-04T16:04:53.023Z,10.00
2023-01-04T16:07:19.564Z,9.60
2023-01-04T16:09:47.635Z,9.07
2023-01-04T16:12:32.532Z,8.68
2023-01-04T16:14:59.076Z,10.00
2023-01-04T16:17:25.927Z,10.77
2023-01-04T16:19:52.400Z,12.38
2023-01-04T16:22:18.928Z,9.50
2023-01-04T16:25:09.719Z,8.73
2023-01-04T16:27:35.512Z,11.07
2023-01-04T16:30:04.270Z,10.30
2023-01-04T16:32:31.001Z,8.75
2023-01-04T16:34:57.561Z,10.35
2023-01-04T16:37:28.324Z,10.48
2023-01-04T16:40:06.235Z,7.90
2023-01-04T16:42:37.834Z,11.20
2023-01-04T16:45:05.375Z,10.20
2023-01-04T16:47:41.748Z,13.93
2023-01-04T16:50:09.829Z,7.88
2023-01-04T16:52:36.723Z,10.70
2023-01-04T16:55:03.647Z,10.95
2023-01-04T16:57:30.307Z,12.50
2023-01-04T16:59:58.012Z,13.07
2023-01-04T17:02:24.726Z,11.07
2023-01-04T17:04:56.898Z,13.57
2023-01-04T17:07:23.585Z,15.55
2023-01-04T17:09:50.132Z,17.85
2023-01-04T17:12:46.382Z,12.05
2023-01-04T17:15:41.339Z,11.38
2023-01-04T17:17:54.216Z,11.10
2023-01-04T17:20:20.775Z,10.65
2023-01-04T17:22:47.397Z,19.48
2023-01-04T17:25:15.001Z,12.63
2023-01-04T17:27:41.656Z,12.05
2023-01-04T17:30:09.043Z,14.85
2023-01-04T17:32:35.581Z,13.43
2023-01-04T17:35:02.119Z,11.65
2023-01-04T17:37:28.664Z,15.35
2023-01-04T17:39:55.249Z,13.65
2023-01-04T17:42:23.000Z,16.70
2023-01-04T17:44:50.339Z,19.88
2023-01-04T17:47:16.832Z,15.30
2023-01-04T17:49:43.366Z,16.48
2023-01-04T17:52:13.665Z,20.02
2023-01-04T17:54:43.118Z,21.73
2023-01-04T17:57:09.653Z,18.83
2023-01-04T17:59:36.128Z,16.75
2023-01-04T18:02:02.753Z,19.27
2023-01-04T18:04:29.299Z,18.75
2023-01-04T18:06:55.811Z,21.63
2023-01-04T18:09:24.546Z,18.40
2023-01-04T18:11:51.330Z,18.05
2023-01-04T18:14:18.186Z,24.73
2023-01-04T18:16:57.897Z,21.05
2023-01-04T18:19:27.651Z,24.08
2023-01-04T18:21:54.919Z,22.60
2023-01-04T18:24:38.374Z,20.23
2023-01-04T18:27:22.607Z,20.65
2023-01-04T18:29:50.818Z,22.80
2023-01-04T18:32:17.687Z,22.25
2023-01-04T18:34:44.382Z,24.25
2023-01-04T18:37:11.012Z,22.75
2023-01-04T18:39:37.585Z,23.27
2023-01-04T18:42:04.124Z,25.10
2023-01-04T18:44:33.814Z,27.73
2023-01-04T18:47:04.889Z,28.60
2023-01-04T18:49:31.812Z,25.67
2023-01-04T18:51:58.372Z,29.88
2023-01-04T18:54:25.053Z,27.02
2023-01-04T18:56:57.322Z,25.77
2023-01-04T18:59:27.769Z,26.20
2023-01-04T19:01:54.472Z,21.67
2023-01-04T19:04:21.186Z,29.25
2023-01-04T19:06:47.753Z,30.73
2023-01-04T19:09:14.257Z,28.33
2023-01-04T19:11:40.811Z,30.27
2023-01-04T19:14:07.353Z,29.60
2023-01-04T19:16:37.122Z,31.45
2023-01-04T19:19:03.876Z,26.05
2023-01-04T19:21:30.438Z,32.38
2023-01-04T19:23:56.983Z,35.90
2023-01-04T19:26:24.619Z,23.20
2023-01-04T19:28:51.611Z,31.23
2023-01-04T19:31:23.041Z,29.55
2023-01-04T19:33:50.785Z,24.48
2023-01-04T19:36:18.932Z,24.77
2023-01-04T19:38:46.012Z,28.77
2023-01-04T19:41:27.751Z,29.80
2023-01-04T19:43:57.948Z,23.40
2023-01-04T19:46:24.745Z,27.15
2023-01-04T19:48:51.347Z,31.45
2023-01-04T19:51:17.906Z,28.38
2023-01-04T19:53:45.048Z,27.85
2023-01-04T19:56:13.618Z,25.02
2023-01-04T19:58:40.651Z,32.63
2023-01-04T20:01:07.736Z,29.48
2023-01-04T20:03:34.490Z,29.60
2023-01-04T20:06:04.524Z,30.55
2023-01-04T20:08:31.809Z,26.50
2023-01-04T20:10:59.735Z,30.90
2023-01-04T20:13:27.820Z,29.75
2023-01-04T20:15:54.484Z,24.83
2023-01-04T20:18:23.852Z,28.50
2023-01-04T20:20:52.063Z,27.02
2023-01-04T20:23:19.553Z,23.58
2023-01-04T20:25:48.535Z,28.23
2023-01-04T20:28:16.345Z,24.42
2023-01-04T20:30:43.272Z,26.02
2023-01-04T20:33:10.198Z,26.67
2023-01-04T20:35:42.291Z,25.73
2023-01-04T20:38:09.964Z,31.48
2023-01-04T20:40:38.499Z,24.13
2023-01-04T20:43:23.794Z,26.13
2023-01-04T20:45:50.454Z,31.10
2023-01-04T20:48:17.067Z,25.40
2023-01-04T20:50:43.928Z,23.17
2023-01-04T20:53:11.545Z,24.02
2023-01-04T20:55:42.296Z,21.52
2023-01-04T20:58:10.630Z,27.92
2023-01-04T21:00:38.749Z,27.30
2023-01-04T21:03:07.458Z,26.88
2023-01-04T21:05:39.067Z,19.67
2023-01-04T21:08:06.389Z,21.20
2023-01-04T21:10:33.259Z,22.67
2023-01-04T21:12:59.908Z,21.20
2023-01-04T21:15:27.205Z,22.90
2023-01-04T21:17:53.836Z,20.98
2023-01-04T21:20:21.600Z,23.85
2023-01-04T21:22:48.266Z,25.90
2023-01-04T21:25:14.851Z,25.52
2023-01-04T21:27:41.443Z,21.15
2023-01-04T21:30:08.366Z,24.08
2023-01-04T21:32:34.920Z,27.10
2023-01-04T21:35:02.772Z,24.25
2023-01-04T21:37:30.462Z,25.08
2023-01-04T21:39:56.994Z,20.13
2023-01-04T21:42:23.545Z,18.75
2023-01-04T21:44:50.647Z,25.50
2023-01-04T21:47:17.215Z,25.20
2023-01-04T21:49:43.931Z,21.98
2023-01-04T21:52:11.461Z,27.50
2023-01-04T21:54:38.883Z,25.13
2023-01-04T21:57:08.231Z,20.08
2023-01-04T21:59:35.834Z,21.58
2023-01-04T22:02:02.908Z,27.58
2023-01-04T22:04:29.820Z,27.13
2023-01-04T22:06:56.526Z,28.60
2023-01-04T22:09:23.418Z,28.33
2023-01-04T22:11:50.191Z,22.75
2023-01-04T22:14:18.143Z,25.33
2023-01-04T22:16:44.942Z,27.42
2023-01-04T22:19:13.109Z,24.80
2023-01-04T22:21:40.247Z,27.25
2023-01-04T22:24:10.015Z,21.17
2023-01-04T22:26:36.497Z,28.10
2023-01-04T22:29:04.077Z,22.88
2023-01-04T22:31:30.808Z,24.13
2023-01-04T22:33:57.463Z,26.75
2023-01-04T22:36:24.239Z,27.17
2023-01-04T22:38:52.361Z,21.13
2023-01-04T22:41:21.565Z,25.17
2023-01-04T22:43:53.136Z,29.05
2023-01-04T22:46:19.753Z,24.88
2023-01-04T22:48:46.325Z,25.27
2023-01-04T22:51:15.194Z,24.38
2023-01-04T22:53:42.025Z,20.73
2023-01-04T22:56:22.404Z,26.67
2023-01-04T22:58:54.157Z,26.50
2023-01-04T23:01:27.442Z,24.33
2023-01-04T23:03:54.928Z,24.42
2023-01-04T23:06:23.521Z,24.80
2023-01-04T23:08:58.870Z,24.52
2023-01-04T23:13:53.065Z,26.42
2023-01-04T23:16:20.081Z,24.52
2023-01-04T23:18:47.016Z,23.55
2023-01-04T23:21:15.533Z,27.65
2023-01-04T23:23:42.349Z,30.20
2023-01-04T23:26:14.321Z,25.73
2023-01-04T23:28:41.704Z,25.80
2023-01-04T23:31:10.749Z,23.38
2023-01-04T23:33:37.989Z,25.55
2023-01-04T23:36:16.692Z,23.75
2023-01-04T23:38:44.790Z,28.95
2023-01-04T23:41:12.549Z,21.45
2023-01-04T23:43:39.156Z,21.52
2023-01-04T23:46:11.849Z,20.27
2023-01-04T23:48:38.527Z,26.50
2023-01-04T23:51:05.263Z,30.10
2023-01-04T23:53:31.872Z,32.80
2023-01-04T23:56:13.296Z,30.42
2023-01-04T23:58:39.976Z,26.30
